sensor_id;sensor_type;location;lat;lon;timestamp;P1;durP1;ratioP1;P2;durP2;ratioP2
81150;SDS011;70629;-26.026;27.976;2023-09-19T00:01:27;30.17;;;20.70;;
81150;SDS011;70629;-26.026;27.976;2023-09-19T00:03:05;30.08;;;21.73;;
81150;SDS011;70629;-26.026;27.976;2023-09-19T00:04:41;29.00;;;21.17;;
81150;SDS011;70629;-26.026;27.976;2023-09-19T00:06:18;26.92;;;19.33;;
81150;SDS011;70629;-26.026;27.976;2023-09-19T00:07:56;31.52;;;21.02;;
81150;SDS011;70629;-26.026;27.976;2023-09-19T00:09:35;28.05;;;19.70;;
81150;SDS011;70629;-26.026;27.976;2023-09-19T00:11:14;28.05;;;19.35;;
81150;SDS011;70629;-26.026;27.976;2023-09-19T00:12:51;30.10;;;20.08;;
81150;SDS011;70629;-26.026;27.976;2023-09-19T00:14:34;29.65;;;20.13;;
81150;SDS011;70629;-26.026;27.976;2023-09-19T00:16:11;28.85;;;18.38;;
81150;SDS011;70629;-26.026;27.976;2023-09-19T00:17:47;26.58;;;18.80;;
81150;SDS011;70629;-26.026;27.976;2023-09-19T00:19:24;25.88;;;18.13;;
81150;SDS011;70629;-26.026;27.976;2023-09-19T00:21:00;27.92;;;18.15;;
81150;SDS011;70629;-26.026;27.976;2023-09-19T00:22:38;28.40;;;19.60;;
81150;SDS011;70629;-26.026;27.976;2023-09-19T00:24:15;27.02;;;19.48;;
81150;SDS011;70629;-26.026;27.976;2023-09-19T00:25:53;28.90;;;16.88;;
81150;SDS011;70629;-26.026;27.976;2023-09-19T00:27:33;27.77;;;19.40;;
81150;SDS011;70629;-26.026;27.976;2023-09-19T00:29:09;29.45;;;18.35;;
81150;SDS011;70629;-26.026;27.976;2023-09-19T00:30:45;26.20;;;17.77;;
81150;SDS011;70629;-26.026;27.976;2023-09-19T00:32:30;28.50;;;18.63;;
81150;SDS011;70629;-26.026;27.976;2023-09-19T00:34:05;27.35;;;18.35;;
81150;SDS011;70629;-26.026;27.976;2023-09-19T00:37:24;26.48;;;18.90;;
81150;SDS011;70629;-26.026;27.976;2023-09-19T00:39:01;28.58;;;19.08;;
81150;SDS011;70629;-26.026;27.976;2023-09-19T00:40:37;27.10;;;18.58;;
81150;SDS011;70629;-26.026;27.976;2023-09-19T00:42:20;26.20;;;18.13;;
81150;SDS011;70629;-26.026;27.976;2023-09-19T00:43:56;25.33;;;18.42;;
81150;SDS011;70629;-26.026;27.976;2023-09-19T00:45:32;28.50;;;19.02;;
81150;SDS011;70629;-26.026;27.976;2023-09-19T00:47:08;25.60;;;18.02;;
81150;SDS011;70629;-26.026;27.976;2023-09-19T00:48:44;25.23;;;16.67;;
81150;SDS011;70629;-26.026;27.976;2023-09-19T00:50:22;27.95;;;15.82;;
81150;SDS011;70629;-26.026;27.976;2023-09-19T00:52:01;24.17;;;16.63;;
81150;SDS011;70629;-26.026;27.976;2023-09-19T00:53:39;24.83;;;16.73;;
81150;SDS011;70629;-26.026;27.976;2023-09-19T00:55:21;22.13;;;15.45;;
81150;SDS011;70629;-26.026;27.976;2023-09-19T00:56:58;24.83;;;16.25;;
81150;SDS011;70629;-26.026;27.976;2023-09-19T00:58:35;26.17;;;16.95;;
81150;SDS011;70629;-26.026;27.976;2023-09-19T01:00:13;29.23;;;17.48;;
81150;SDS011;70629;-26.026;27.976;2023-09-19T01:01:51;24.75;;;16.27;;
81150;SDS011;70629;-26.026;27.976;2023-09-19T01:03:29;25.50;;;15.65;;
81150;SDS011;70629;-26.026;27.976;2023-09-19T01:05:06;24.02;;;15.27;;
81150;SDS011;70629;-26.026;27.976;2023-09-19T01:06:42;28.20;;;16.52;;
81150;SDS011;70629;-26.026;27.976;2023-09-19T01:08:20;24.05;;;16.05;;
81150;SDS011;70629;-26.026;27.976;2023-09-19T01:09:56;26.63;;;16.95;;
81150;SDS011;70629;-26.026;27.976;2023-09-19T01:11:40;24.48;;;14.95;;
81150;SDS011;70629;-26.026;27.976;2023-09-19T01:17:27;26.13;;;15.65;;
81150;SDS011;70629;-26.026;27.976;2023-09-19T01:19:25;27.50;;;15.90;;
81150;SDS011;70629;-26.026;27.976;2023-09-19T01:29:24;22.15;;;14.80;;
81150;SDS011;70629;-26.026;27.976;2023-09-19T01:31:08;23.77;;;15.02;;
81150;SDS011;70629;-26.026;27.976;2023-09-19T01:32:47;21.02;;;14.68;;
81150;SDS011;70629;-26.026;27.976;2023-09-19T01:34:44;21.02;;;14.43;;
81150;SDS011;70629;-26.026;27.976;2023-09-19T01:36:29;25.42;;;15.10;;
81150;SDS011;70629;-26.026;27.976;2023-09-19T01:38:09;22.17;;;14.07;;
81150;SDS011;70629;-26.026;27.976;2023-09-19T01:39:50;21.33;;;13.15;;
81150;SDS011;70629;-26.026;27.976;2023-09-19T01:43:41;24.98;;;13.40;;
81150;SDS011;70629;-26.026;27.976;2023-09-19T01:47:31;21.83;;;13.65;;
81150;SDS011;70629;-26.026;27.976;2023-09-19T01:50:52;20.23;;;13.98;;
81150;SDS011;70629;-26.026;27.976;2023-09-19T01:52:36;21.35;;;14.43;;
81150;SDS011;70629;-26.026;27.976;2023-09-19T01:54:20;20.77;;;14.27;;
81150;SDS011;70629;-26.026;27.976;2023-09-19T01:56:08;21.55;;;13.80;;
81150;SDS011;70629;-26.026;27.976;2023-09-19T01:59:38;22.15;;;13.57;;
81150;SDS011;70629;-26.026;27.976;2023-09-19T02:01:22;19.85;;;14.40;;
81150;SDS011;70629;-26.026;27.976;2023-09-19T02:03:00;23.35;;;13.45;;
81150;SDS011;70629;-26.026;27.976;2023-09-19T02:04:37;23.20;;;13.70;;
81150;SDS011;70629;-26.026;27.976;2023-09-19T02:06:17;21.63;;;13.80;;
81150;SDS011;70629;-26.026;27.976;2023-09-19T02:07:53;24.55;;;13.73;;
81150;SDS011;70629;-26.026;27.976;2023-09-19T02:09:30;17.85;;;12.15;;
81150;SDS011;70629;-26.026;27.976;2023-09-19T02:11:10;22.55;;;13.32;;
81150;SDS011;70629;-26.026;27.976;2023-09-19T02:12:50;19.38;;;12.45;;
81150;SDS011;70629;-26.026;27.976;2023-09-19T02:14:26;22.20;;;13.93;;
81150;SDS011;70629;-26.026;27.976;2023-09-19T02:16:04;20.45;;;13.88;;
81150;SDS011;70629;-26.026;27.976;2023-09-19T02:17:42;24.08;;;14.05;;
81150;SDS011;70629;-26.026;27.976;2023-09-19T02:19:19;21.98;;;13.70;;
81150;SDS011;70629;-26.026;27.976;2023-09-19T02:20:56;25.08;;;13.85;;
81150;SDS011;70629;-26.026;27.976;2023-09-19T02:22:34;26.50;;;15.23;;
81150;SDS011;70629;-26.026;27.976;2023-09-19T02:24:10;22.85;;;13.30;;
81150;SDS011;70629;-26.026;27.976;2023-09-19T02:25:53;25.50;;;14.20;;
81150;SDS011;70629;-26.026;27.976;2023-09-19T02:27:29;24.08;;;14.35;;
81150;SDS011;70629;-26.026;27.976;2023-09-19T02:29:06;22.77;;;14.40;;
81150;SDS011;70629;-26.026;27.976;2023-09-19T02:30:42;21.25;;;14.05;;
81150;SDS011;70629;-26.026;27.976;2023-09-19T02:32:18;23.63;;;14.27;;
81150;SDS011;70629;-26.026;27.976;2023-09-19T02:33:54;20.75;;;14.00;;
81150;SDS011;70629;-26.026;27.976;2023-09-19T02:35:31;18.67;;;13.10;;
81150;SDS011;70629;-26.026;27.976;2023-09-19T02:37:10;20.00;;;13.85;;
81150;SDS011;70629;-26.026;27.976;2023-09-19T02:38:48;22.67;;;14.25;;
81150;SDS011;70629;-26.026;27.976;2023-09-19T02:40:24;19.42;;;12.98;;
81150;SDS011;70629;-26.026;27.976;2023-09-19T02:42:01;20.92;;;14.70;;
81150;SDS011;70629;-26.026;27.976;2023-09-19T02:43:39;19.85;;;14.30;;
81150;SDS011;70629;-26.026;27.976;2023-09-19T02:45:16;18.92;;;12.13;;
81150;SDS011;70629;-26.026;27.976;2023-09-19T02:46:55;23.00;;;13.55;;
81150;SDS011;70629;-26.026;27.976;2023-09-19T02:48:33;20.63;;;12.85;;
81150;SDS011;70629;-26.026;27.976;2023-09-19T02:50:10;17.67;;;13.00;;
81150;SDS011;70629;-26.026;27.976;2023-09-19T02:51:48;21.17;;;13.75;;
81150;SDS011;70629;-26.026;27.976;2023-09-19T02:53:24;17.92;;;12.70;;
81150;SDS011;70629;-26.026;27.976;2023-09-19T02:55:00;23.65;;;13.70;;
81150;SDS011;70629;-26.026;27.976;2023-09-19T02:56:36;22.70;;;13.00;;
81150;SDS011;70629;-26.026;27.976;2023-09-19T02:58:13;27.70;;;13.00;;
81150;SDS011;70629;-26.026;27.976;2023-09-19T02:59:49;20.95;;;13.57;;
81150;SDS011;70629;-26.026;27.976;2023-09-19T03:01:26;17.90;;;12.95;;
81150;SDS011;70629;-26.026;27.976;2023-09-19T03:03:03;20.38;;;13.65;;
81150;SDS011;70629;-26.026;27.976;2023-09-19T03:04:41;22.50;;;14.02;;
81150;SDS011;70629;-26.026;27.976;2023-09-19T03:06:17;19.65;;;11.98;;
81150;SDS011;70629;-26.026;27.976;2023-09-19T03:07:55;20.65;;;12.05;;
81150;SDS011;70629;-26.026;27.976;2023-09-19T03:09:30;21.02;;;13.32;;
81150;SDS011;70629;-26.026;27.976;2023-09-19T03:11:07;21.23;;;13.43;;
81150;SDS011;70629;-26.026;27.976;2023-09-19T03:12:47;25.13;;;13.65;;
81150;SDS011;70629;-26.026;27.976;2023-09-19T03:14:25;19.48;;;12.60;;
81150;SDS011;70629;-26.026;27.976;2023-09-19T03:16:05;22.02;;;12.82;;
81150;SDS011;70629;-26.026;27.976;2023-09-19T03:17:45;20.55;;;13.45;;
81150;SDS011;70629;-26.026;27.976;2023-09-19T03:19:26;18.05;;;14.05;;
81150;SDS011;70629;-26.026;27.976;2023-09-19T03:21:04;20.42;;;12.90;;
81150;SDS011;70629;-26.026;27.976;2023-09-19T03:22:40;23.60;;;13.70;;
81150;SDS011;70629;-26.026;27.976;2023-09-19T03:24:17;19.58;;;13.15;;
81150;SDS011;70629;-26.026;27.976;2023-09-19T03:25:54;18.33;;;13.02;;
81150;SDS011;70629;-26.026;27.976;2023-09-19T03:27:31;23.77;;;13.85;;
81150;SDS011;70629;-26.026;27.976;2023-09-19T03:29:07;22.75;;;12.23;;
81150;SDS011;70629;-26.026;27.976;2023-09-19T03:30:45;20.35;;;13.43;;
81150;SDS011;70629;-26.026;27.976;2023-09-19T03:32:21;19.90;;;13.00;;
81150;SDS011;70629;-26.026;27.976;2023-09-19T03:33:57;20.75;;;13.35;;
81150;SDS011;70629;-26.026;27.976;2023-09-19T03:35:33;16.80;;;12.13;;
81150;SDS011;70629;-26.026;27.976;2023-09-19T03:37:11;21.50;;;13.52;;
81150;SDS011;70629;-26.026;27.976;2023-09-19T03:38:47;18.77;;;12.70;;
81150;SDS011;70629;-26.026;27.976;2023-09-19T03:40:24;20.50;;;12.73;;
81150;SDS011;70629;-26.026;27.976;2023-09-19T03:42:01;17.27;;;10.93;;
81150;SDS011;70629;-26.026;27.976;2023-09-19T03:43:42;21.20;;;12.88;;
81150;SDS011;70629;-26.026;27.976;2023-09-19T03:45:18;23.17;;;13.27;;
81150;SDS011;70629;-26.026;27.976;2023-09-19T03:46:58;23.48;;;12.30;;
81150;SDS011;70629;-26.026;27.976;2023-09-19T03:48:34;19.65;;;12.93;;
81150;SDS011;70629;-26.026;27.976;2023-09-19T03:50:10;19.50;;;11.65;;
81150;SDS011;70629;-26.026;27.976;2023-09-19T03:51:46;21.58;;;12.27;;
81150;SDS011;70629;-26.026;27.976;2023-09-19T03:53:22;23.15;;;12.77;;
81150;SDS011;70629;-26.026;27.976;2023-09-19T03:54:58;20.80;;;12.90;;
81150;SDS011;70629;-26.026;27.976;2023-09-19T03:56:35;19.40;;;12.93;;
81150;SDS011;70629;-26.026;27.976;2023-09-19T03:58:11;20.42;;;13.95;;
81150;SDS011;70629;-26.026;27.976;2023-09-19T03:59:48;21.52;;;14.48;;
81150;SDS011;70629;-26.026;27.976;2023-09-19T04:01:24;21.83;;;13.02;;
81150;SDS011;70629;-26.026;27.976;2023-09-19T04:03:01;21.23;;;14.32;;
81150;SDS011;70629;-26.026;27.976;2023-09-19T04:04:41;21.08;;;14.13;;
81150;SDS011;70629;-26.026;27.976;2023-09-19T04:06:17;20.48;;;15.43;;
81150;SDS011;70629;-26.026;27.976;2023-09-19T04:07:53;29.25;;;15.80;;
81150;SDS011;70629;-26.026;27.976;2023-09-19T04:09:29;23.63;;;14.65;;
81150;SDS011;70629;-26.026;27.976;2023-09-19T04:11:05;22.65;;;13.32;;
81150;SDS011;70629;-26.026;27.976;2023-09-19T04:12:41;27.48;;;16.13;;
81150;SDS011;70629;-26.026;27.976;2023-09-19T04:14:28;22.52;;;15.25;;
81150;SDS011;70629;-26.026;27.976;2023-09-19T04:16:04;24.58;;;13.60;;
81150;SDS011;70629;-26.026;27.976;2023-09-19T04:17:41;25.48;;;15.68;;
81150;SDS011;70629;-26.026;27.976;2023-09-19T04:19:18;30.10;;;14.63;;
81150;SDS011;70629;-26.026;27.976;2023-09-19T04:20:57;22.65;;;13.85;;
81150;SDS011;70629;-26.026;27.976;2023-09-19T04:22:33;23.17;;;13.35;;
81150;SDS011;70629;-26.026;27.976;2023-09-19T04:24:09;29.45;;;13.75;;
81150;SDS011;70629;-26.026;27.976;2023-09-19T04:25:45;22.35;;;14.77;;
81150;SDS011;70629;-26.026;27.976;2023-09-19T04:27:21;22.45;;;14.02;;
81150;SDS011;70629;-26.026;27.976;2023-09-19T04:28:58;21.10;;;14.13;;
81150;SDS011;70629;-26.026;27.976;2023-09-19T04:30:34;24.80;;;14.05;;
81150;SDS011;70629;-26.026;27.976;2023-09-19T04:32:10;21.20;;;13.85;;
81150;SDS011;70629;-26.026;27.976;2023-09-19T04:33:48;22.65;;;12.70;;
81150;SDS011;70629;-26.026;27.976;2023-09-19T04:35:24;22.63;;;12.77;;
81150;SDS011;70629;-26.026;27.976;2023-09-19T04:37:02;25.58;;;13.77;;
81150;SDS011;70629;-26.026;27.976;2023-09-19T04:38:38;25.15;;;14.15;;
81150;SDS011;70629;-26.026;27.976;2023-09-19T04:40:15;27.73;;;15.23;;
81150;SDS011;70629;-26.026;27.976;2023-09-19T04:41:54;28.90;;;15.32;;
81150;SDS011;70629;-26.026;27.976;2023-09-19T04:43:30;27.02;;;15.55;;
81150;SDS011;70629;-26.026;27.976;2023-09-19T04:45:06;20.95;;;13.80;;
81150;SDS011;70629;-26.026;27.976;2023-09-19T04:46:44;27.27;;;15.23;;
81150;SDS011;70629;-26.026;27.976;2023-09-19T04:48:23;22.25;;;13.70;;
81150;SDS011;70629;-26.026;27.976;2023-09-19T04:50:00;27.38;;;16.35;;
81150;SDS011;70629;-26.026;27.976;2023-09-19T04:51:36;24.02;;;13.98;;
81150;SDS011;70629;-26.026;27.976;2023-09-19T04:53:11;19.63;;;13.52;;
81150;SDS011;70629;-26.026;27.976;2023-09-19T04:54:48;20.90;;;13.15;;
81150;SDS011;70629;-26.026;27.976;2023-09-19T04:56:24;26.20;;;14.27;;
81150;SDS011;70629;-26.026;27.976;2023-09-19T04:58:00;23.67;;;13.13;;
81150;SDS011;70629;-26.026;27.976;2023-09-19T04:59:35;29.83;;;15.15;;
81150;SDS011;70629;-26.026;27.976;2023-09-19T05:01:12;21.80;;;14.40;;
81150;SDS011;70629;-26.026;27.976;2023-09-19T05:02:50;18.63;;;14.52;;
81150;SDS011;70629;-26.026;27.976;2023-09-19T05:04:27;23.42;;;14.88;;
81150;SDS011;70629;-26.026;27.976;2023-09-19T05:06:03;26.33;;;13.27;;
81150;SDS011;70629;-26.026;27.976;2023-09-19T05:07:40;22.80;;;14.50;;
81150;SDS011;70629;-26.026;27.976;2023-09-19T05:09:17;27.90;;;14.50;;
81150;SDS011;70629;-26.026;27.976;2023-09-19T05:10:54;21.25;;;13.68;;
81150;SDS011;70629;-26.026;27.976;2023-09-19T05:12:32;21.00;;;13.27;;
81150;SDS011;70629;-26.026;27.976;2023-09-19T05:14:09;21.35;;;12.57;;
81150;SDS011;70629;-26.026;27.976;2023-09-19T05:15:46;22.35;;;14.10;;
81150;SDS011;70629;-26.026;27.976;2023-09-19T05:17:22;24.35;;;13.75;;
81150;SDS011;70629;-26.026;27.976;2023-09-19T05:18:59;18.40;;;12.98;;
81150;SDS011;70629;-26.026;27.976;2023-09-19T05:20:36;19.15;;;13.02;;
81150;SDS011;70629;-26.026;27.976;2023-09-19T05:22:14;24.65;;;13.38;;
81150;SDS011;70629;-26.026;27.976;2023-09-19T05:23:51;21.30;;;15.07;;
81150;SDS011;70629;-26.026;27.976;2023-09-19T05:25:31;24.05;;;13.75;;
81150;SDS011;70629;-26.026;27.976;2023-09-19T05:27:08;23.88;;;14.35;;
81150;SDS011;70629;-26.026;27.976;2023-09-19T05:28:44;29.38;;;13.75;;
81150;SDS011;70629;-26.026;27.976;2023-09-19T05:30:20;24.33;;;14.60;;
81150;SDS011;70629;-26.026;27.976;2023-09-19T05:31:56;25.17;;;14.48;;
81150;SDS011;70629;-26.026;27.976;2023-09-19T05:33:33;26.50;;;15.52;;
81150;SDS011;70629;-26.026;27.976;2023-09-19T05:35:09;24.73;;;14.90;;
81150;SDS011;70629;-26.026;27.976;2023-09-19T05:36:45;22.35;;;14.48;;
81150;SDS011;70629;-26.026;27.976;2023-09-19T05:38:23;23.88;;;13.93;;
81150;SDS011;70629;-26.026;27.976;2023-09-19T05:40:02;23.05;;;14.52;;
81150;SDS011;70629;-26.026;27.976;2023-09-19T05:41:45;23.05;;;13.70;;
81150;SDS011;70629;-26.026;27.976;2023-09-19T05:43:22;23.63;;;13.70;;
81150;SDS011;70629;-26.026;27.976;2023-09-19T05:44:58;23.77;;;13.35;;
81150;SDS011;70629;-26.026;27.976;2023-09-19T05:46:35;23.48;;;12.13;;
81150;SDS011;70629;-26.026;27.976;2023-09-19T05:48:11;25.10;;;14.18;;
81150;SDS011;70629;-26.026;27.976;2023-09-19T05:49:49;19.67;;;11.68;;
81150;SDS011;70629;-26.026;27.976;2023-09-19T05:51:25;20.88;;;11.95;;
81150;SDS011;70629;-26.026;27.976;2023-09-19T05:53:03;19.35;;;10.57;;
81150;SDS011;70629;-26.026;27.976;2023-09-19T05:54:40;20.67;;;11.85;;
81150;SDS011;70629;-26.026;27.976;2023-09-19T05:56:17;21.10;;;12.35;;
81150;SDS011;70629;-26.026;27.976;2023-09-19T05:57:53;21.80;;;11.55;;
81150;SDS011;70629;-26.026;27.976;2023-09-19T05:59:30;22.10;;;12.02;;
81150;SDS011;70629;-26.026;27.976;2023-09-19T06:01:08;27.95;;;12.77;;
81150;SDS011;70629;-26.026;27.976;2023-09-19T06:02:44;22.55;;;12.55;;
81150;SDS011;70629;-26.026;27.976;2023-09-19T06:04:20;20.63;;;12.43;;
81150;SDS011;70629;-26.026;27.976;2023-09-19T06:05:56;24.27;;;15.25;;
81150;SDS011;70629;-26.026;27.976;2023-09-19T06:07:33;23.02;;;12.60;;
81150;SDS011;70629;-26.026;27.976;2023-09-19T06:09:11;26.35;;;13.02;;
81150;SDS011;70629;-26.026;27.976;2023-09-19T06:10:47;25.77;;;13.38;;
81150;SDS011;70629;-26.026;27.976;2023-09-19T06:12:24;18.05;;;11.30;;
81150;SDS011;70629;-26.026;27.976;2023-09-19T06:14:00;22.60;;;12.75;;
81150;SDS011;70629;-26.026;27.976;2023-09-19T06:15:37;22.15;;;12.65;;
81150;SDS011;70629;-26.026;27.976;2023-09-19T06:17:13;21.90;;;12.10;;
81150;SDS011;70629;-26.026;27.976;2023-09-19T06:18:50;17.33;;;11.02;;
81150;SDS011;70629;-26.026;27.976;2023-09-19T06:20:27;22.60;;;12.23;;
81150;SDS011;70629;-26.026;27.976;2023-09-19T06:22:04;24.25;;;11.40;;
81150;SDS011;70629;-26.026;27.976;2023-09-19T06:23:40;21.02;;;11.48;;
81150;SDS011;70629;-26.026;27.976;2023-09-19T06:25:16;23.25;;;12.95;;
81150;SDS011;70629;-26.026;27.976;2023-09-19T06:26:57;18.70;;;12.07;;
81150;SDS011;70629;-26.026;27.976;2023-09-19T06:28:36;20.02;;;12.43;;
81150;SDS011;70629;-26.026;27.976;2023-09-19T06:30:12;45.13;;;23.63;;
81150;SDS011;70629;-26.026;27.976;2023-09-19T06:31:49;27.88;;;13.88;;
81150;SDS011;70629;-26.026;27.976;2023-09-19T06:33:26;24.23;;;14.45;;
81150;SDS011;70629;-26.026;27.976;2023-09-19T06:35:01;23.20;;;13.38;;
81150;SDS011;70629;-26.026;27.976;2023-09-19T06:36:37;18.23;;;11.50;;
81150;SDS011;70629;-26.026;27.976;2023-09-19T06:38:14;24.30;;;12.20;;
81150;SDS011;70629;-26.026;27.976;2023-09-19T06:39:50;18.40;;;10.68;;
81150;SDS011;70629;-26.026;27.976;2023-09-19T06:41:27;18.95;;;10.48;;
81150;SDS011;70629;-26.026;27.976;2023-09-19T06:43:11;18.90;;;11.75;;
81150;SDS011;70629;-26.026;27.976;2023-09-19T06:44:47;20.98;;;11.43;;
81150;SDS011;70629;-26.026;27.976;2023-09-19T06:46:23;17.25;;;11.40;;
81150;SDS011;70629;-26.026;27.976;2023-09-19T06:48:00;21.83;;;11.82;;
81150;SDS011;70629;-26.026;27.976;2023-09-19T06:49:37;19.10;;;11.23;;
81150;SDS011;70629;-26.026;27.976;2023-09-19T06:51:14;15.95;;;10.70;;
81150;SDS011;70629;-26.026;27.976;2023-09-19T06:52:52;20.48;;;11.45;;
81150;SDS011;70629;-26.026;27.976;2023-09-19T06:54:30;20.17;;;12.05;;
81150;SDS011;70629;-26.026;27.976;2023-09-19T06:56:06;22.20;;;10.68;;
81150;SDS011;70629;-26.026;27.976;2023-09-19T06:57:42;19.70;;;12.25;;
81150;SDS011;70629;-26.026;27.976;2023-09-19T06:59:19;24.98;;;11.32;;
81150;SDS011;70629;-26.026;27.976;2023-09-19T07:00:55;22.20;;;11.50;;
81150;SDS011;70629;-26.026;27.976;2023-09-19T07:02:31;21.70;;;11.15;;
81150;SDS011;70629;-26.026;27.976;2023-09-19T07:04:08;20.02;;;11.18;;
81150;SDS011;70629;-26.026;27.976;2023-09-19T07:05:44;19.95;;;10.85;;
81150;SDS011;70629;-26.026;27.976;2023-09-19T07:07:22;14.45;;;9.52;;
81150;SDS011;70629;-26.026;27.976;2023-09-19T07:08:58;17.25;;;11.45;;
81150;SDS011;70629;-26.026;27.976;2023-09-19T07:10:34;21.70;;;11.68;;
81150;SDS011;70629;-26.026;27.976;2023-09-19T07:12:10;18.77;;;11.38;;
81150;SDS011;70629;-26.026;27.976;2023-09-19T07:13:47;19.55;;;10.48;;
81150;SDS011;70629;-26.026;27.976;2023-09-19T07:15:26;15.32;;;11.02;;
81150;SDS011;70629;-26.026;27.976;2023-09-19T07:17:03;20.77;;;10.88;;
81150;SDS011;70629;-26.026;27.976;2023-09-19T07:18:39;17.70;;;10.90;;
81150;SDS011;70629;-26.026;27.976;2023-09-19T07:20:15;17.65;;;11.70;;
81150;SDS011;70629;-26.026;27.976;2023-09-19T07:21:51;21.15;;;10.85;;
81150;SDS011;70629;-26.026;27.976;2023-09-19T07:23:27;17.02;;;11.63;;
81150;SDS011;70629;-26.026;27.976;2023-09-19T07:25:05;23.35;;;12.07;;
81150;SDS011;70629;-26.026;27.976;2023-09-19T07:26:41;19.42;;;11.15;;
81150;SDS011;70629;-26.026;27.976;2023-09-19T07:28:17;20.30;;;11.05;;
81150;SDS011;70629;-26.026;27.976;2023-09-19T07:29:54;16.10;;;10.23;;
81150;SDS011;70629;-26.026;27.976;2023-09-19T07:31:31;17.13;;;11.68;;
81150;SDS011;70629;-26.026;27.976;2023-09-19T07:33:07;19.65;;;10.90;;
81150;SDS011;70629;-26.026;27.976;2023-09-19T07:34:47;19.00;;;10.73;;
81150;SDS011;70629;-26.026;27.976;2023-09-19T07:36:24;19.52;;;11.50;;
81150;SDS011;70629;-26.026;27.976;2023-09-19T07:38:00;18.15;;;10.63;;
81150;SDS011;70629;-26.026;27.976;2023-09-19T07:39:36;23.63;;;10.70;;
81150;SDS011;70629;-26.026;27.976;2023-09-19T07:41:12;23.70;;;11.73;;
81150;SDS011;70629;-26.026;27.976;2023-09-19T07:42:49;19.10;;;10.90;;
81150;SDS011;70629;-26.026;27.976;2023-09-19T07:44:25;16.92;;;10.13;;
81150;SDS011;70629;-26.026;27.976;2023-09-19T07:46:05;17.00;;;11.10;;
81150;SDS011;70629;-26.026;27.976;2023-09-19T07:47:48;19.83;;;11.15;;
81150;SDS011;70629;-26.026;27.976;2023-09-19T07:49:25;21.63;;;10.60;;
81150;SDS011;70629;-26.026;27.976;2023-09-19T07:51:07;18.60;;;10.88;;
81150;SDS011;70629;-26.026;27.976;2023-09-19T07:52:44;19.85;;;11.35;;
81150;SDS011;70629;-26.026;27.976;2023-09-19T07:54:27;17.95;;;10.25;;
81150;SDS011;70629;-26.026;27.976;2023-09-19T07:56:08;16.70;;;11.15;;
81150;SDS011;70629;-26.026;27.976;2023-09-19T07:57:45;22.33;;;11.63;;
81150;SDS011;70629;-26.026;27.976;2023-09-19T07:59:24;21.90;;;11.57;;
81150;SDS011;70629;-26.026;27.976;2023-09-19T08:01:06;14.30;;;10.52;;
81150;SDS011;70629;-26.026;27.976;2023-09-19T08:04:31;27.48;;;11.05;;
81150;SDS011;70629;-26.026;27.976;2023-09-19T08:06:09;23.42;;;10.48;;
81150;SDS011;70629;-26.026;27.976;2023-09-19T08:07:45;66.65;;;37.25;;
81150;SDS011;70629;-26.026;27.976;2023-09-19T08:09:24;21.48;;;12.38;;
81150;SDS011;70629;-26.026;27.976;2023-09-19T08:11:00;21.25;;;12.30;;
81150;SDS011;70629;-26.026;27.976;2023-09-19T08:12:36;22.52;;;12.57;;
81150;SDS011;70629;-26.026;27.976;2023-09-19T08:14:12;19.85;;;11.52;;
81150;SDS011;70629;-26.026;27.976;2023-09-19T08:15:50;21.20;;;12.80;;
81150;SDS011;70629;-26.026;27.976;2023-09-19T08:17:28;20.42;;;11.40;;
81150;SDS011;70629;-26.026;27.976;2023-09-19T08:19:04;20.27;;;11.80;;
81150;SDS011;70629;-26.026;27.976;2023-09-19T08:20:41;18.00;;;11.75;;
81150;SDS011;70629;-26.026;27.976;2023-09-19T08:22:21;18.92;;;11.02;;
81150;SDS011;70629;-26.026;27.976;2023-09-19T08:23:58;14.23;;;11.20;;
81150;SDS011;70629;-26.026;27.976;2023-09-19T08:25:34;21.88;;;10.68;;
81150;SDS011;70629;-26.026;27.976;2023-09-19T08:27:13;21.13;;;10.80;;
81150;SDS011;70629;-26.026;27.976;2023-09-19T08:28:51;15.18;;;10.10;;
81150;SDS011;70629;-26.026;27.976;2023-09-19T08:30:28;21.27;;;10.63;;
81150;SDS011;70629;-26.026;27.976;2023-09-19T08:32:05;16.80;;;10.10;;
81150;SDS011;70629;-26.026;27.976;2023-09-19T08:33:41;27.67;;;11.93;;
81150;SDS011;70629;-26.026;27.976;2023-09-19T08:35:20;16.92;;;9.75;;
81150;SDS011;70629;-26.026;27.976;2023-09-19T08:36:55;21.10;;;11.25;;
81150;SDS011;70629;-26.026;27.976;2023-09-19T08:38:33;16.83;;;9.75;;
81150;SDS011;70629;-26.026;27.976;2023-09-19T08:40:09;17.40;;;10.48;;
81150;SDS011;70629;-26.026;27.976;2023-09-19T08:41:48;15.90;;;8.95;;
81150;SDS011;70629;-26.026;27.976;2023-09-19T08:43:27;16.40;;;8.07;;
81150;SDS011;70629;-26.026;27.976;2023-09-19T08:45:03;16.33;;;10.38;;
81150;SDS011;70629;-26.026;27.976;2023-09-19T08:46:43;18.52;;;9.80;;
81150;SDS011;70629;-26.026;27.976;2023-09-19T08:48:25;15.30;;;9.90;;
81150;SDS011;70629;-26.026;27.976;2023-09-19T08:50:19;12.77;;;9.57;;
81150;SDS011;70629;-26.026;27.976;2023-09-19T08:52:10;16.90;;;9.13;;
81150;SDS011;70629;-26.026;27.976;2023-09-19T08:54:07;14.52;;;9.70;;
81150;SDS011;70629;-26.026;27.976;2023-09-19T08:55:45;17.88;;;10.00;;
81150;SDS011;70629;-26.026;27.976;2023-09-19T08:57:24;12.98;;;9.55;;
81150;SDS011;70629;-26.026;27.976;2023-09-19T08:59:05;15.27;;;9.88;;
81150;SDS011;70629;-26.026;27.976;2023-09-19T09:00:48;15.32;;;10.50;;
81150;SDS011;70629;-26.026;27.976;2023-09-19T09:02:26;18.77;;;10.48;;
81150;SDS011;70629;-26.026;27.976;2023-09-19T09:04:09;16.45;;;10.27;;
81150;SDS011;70629;-26.026;27.976;2023-09-19T09:05:48;31.02;;;11.45;;
81150;SDS011;70629;-26.026;27.976;2023-09-19T09:07:26;31.85;;;10.48;;
81150;SDS011;70629;-26.026;27.976;2023-09-19T09:09:04;16.58;;;10.18;;
81150;SDS011;70629;-26.026;27.976;2023-09-19T09:10:40;16.58;;;9.32;;
81150;SDS011;70629;-26.026;27.976;2023-09-19T09:12:16;17.50;;;9.35;;
81150;SDS011;70629;-26.026;27.976;2023-09-19T09:13:52;16.23;;;9.50;;
81150;SDS011;70629;-26.026;27.976;2023-09-19T09:15:28;19.75;;;11.35;;
81150;SDS011;70629;-26.026;27.976;2023-09-19T09:17:07;37.88;;;12.00;;
81150;SDS011;70629;-26.026;27.976;2023-09-19T09:18:43;15.43;;;9.48;;
81150;SDS011;70629;-26.026;27.976;2023-09-19T09:20:20;14.73;;;9.77;;
81150;SDS011;70629;-26.026;27.976;2023-09-19T09:22:09;15.57;;;9.85;;
81150;SDS011;70629;-26.026;27.976;2023-09-19T09:23:46;16.15;;;10.40;;
81150;SDS011;70629;-26.026;27.976;2023-09-19T09:25:22;14.02;;;9.07;;
81150;SDS011;70629;-26.026;27.976;2023-09-19T09:26:59;17.45;;;10.05;;
81150;SDS011;70629;-26.026;27.976;2023-09-19T09:28:36;15.57;;;9.90;;
81150;SDS011;70629;-26.026;27.976;2023-09-19T09:30:37;15.25;;;9.25;;
81150;SDS011;70629;-26.026;27.976;2023-09-19T09:32:19;18.77;;;9.88;;
81150;SDS011;70629;-26.026;27.976;2023-09-19T09:34:00;14.80;;;10.05;;
81150;SDS011;70629;-26.026;27.976;2023-09-19T09:35:37;15.68;;;9.40;;
81150;SDS011;70629;-26.026;27.976;2023-09-19T09:37:28;19.98;;;10.27;;
81150;SDS011;70629;-26.026;27.976;2023-09-19T09:39:11;16.20;;;10.00;;
81150;SDS011;70629;-26.026;27.976;2023-09-19T09:40:54;13.43;;;10.25;;
81150;SDS011;70629;-26.026;27.976;2023-09-19T09:42:42;13.88;;;9.02;;